createdAt,value
2019-04-29T00:01:46.525Z,100455.27
2019-04-29T00:04:18.511Z,100461.91
2019-04-29T00:06:50.770Z,100461.00
2019-04-29T00:09:23.073Z,100462.83
2019-04-29T00:11:54.719Z,100468.98
2019-04-29T00:14:28.115Z,100473.20
2019-04-29T00:17:06.334Z,100477.91
2019-04-29T00:19:42.695Z,100475.59
2019-04-29T00:22:14.588Z,100471.34
2019-04-29T00:24:46.725Z,100474.10
2019-04-29T00:27:18.778Z,100476.02
2019-04-29T00:29:50.656Z,100482.85
2019-04-29T00:32:25.479Z,100475.72
2019-04-29T00:34:57.352Z,100476.16
2019-04-29T00:37:39.869Z,100471.47
2019-04-29T00:40:29.863Z,100473.34
2019-04-29T00:43:09.399Z,100471.16
2019-04-29T00:45:41.468Z,100477.20
2019-04-29T00:48:13.108Z,100484.60
2019-04-29T00:50:44.770Z,100480.27
2019-04-29T00:53:16.750Z,100482.94
2019-04-29T00:55:49.843Z,100483.20
2019-04-29T00:58:21.998Z,100482.06
2019-04-29T01:00:54.062Z,100479.66
2019-04-29T01:03:26.043Z,100481.84
2019-04-29T01:05:57.775Z,100470.78
2019-04-29T01:08:29.872Z,100474.05
2019-04-29T01:11:01.530Z,100473.19
2019-04-29T01:13:33.294Z,100475.41
2019-04-29T01:16:04.949Z,100475.16
2019-04-29T01:18:36.813Z,100473.31
2019-04-29T01:21:08.625Z,100468.42
2019-04-29T01:23:40.542Z,100467.93
2019-04-29T01:26:16.837Z,100468.73
2019-04-29T01:28:56.456Z,100468.77
2019-04-29T01:31:30.097Z,100477.27
2019-04-29T01:34:03.419Z,100474.64
2019-04-29T01:36:37.148Z,100474.41
2019-04-29T01:39:11.656Z,100475.25
2019-04-29T01:41:44.969Z,100478.83
2019-04-29T01:44:18.592Z,100474.51
2019-04-29T01:46:50.766Z,100474.25
2019-04-29T01:49:22.525Z,100481.85
2019-04-29T01:51:54.497Z,100474.51
2019-04-29T01:54:26.546Z,100471.80
2019-04-29T01:56:58.513Z,100473.45
2019-04-29T01:59:30.269Z,100472.50
2019-04-29T02:02:02.455Z,100479.36
2019-04-29T02:04:34.590Z,100482.72
2019-04-29T02:07:06.695Z,100491.77
2019-04-29T02:09:40.299Z,100489.14
2019-04-29T02:12:12.369Z,100496.27
2019-04-29T02:14:44.639Z,100491.52
2019-04-29T02:17:16.724Z,100490.85
2019-04-29T02:19:48.551Z,100496.12
2019-04-29T02:22:28.411Z,100499.43
2019-04-29T02:25:02.125Z,100503.83
2019-04-29T02:27:34.007Z,100501.16
2019-04-29T02:30:07.587Z,100510.38
2019-04-29T02:32:39.545Z,100518.50
2019-04-29T02:35:11.715Z,100518.28
2019-04-29T02:37:45.220Z,100512.14
2019-04-29T02:40:34.714Z,100507.84
2019-04-29T02:43:08.419Z,100513.50
2019-04-29T02:45:40.485Z,100513.77
2019-04-29T02:48:12.458Z,100520.76
2019-04-29T02:50:44.145Z,100525.84
2019-04-29T02:53:15.676Z,100536.08
2019-04-29T02:55:49.482Z,100531.42
2019-04-29T02:58:23.174Z,100535.70
2019-04-29T03:01:13.603Z,100536.47
2019-04-29T03:03:47.397Z,100538.31
2019-04-29T03:06:19.492Z,100543.53
2019-04-29T03:08:51.230Z,100545.49
2019-04-29T03:11:24.425Z,100540.64
2019-04-29T03:13:56.698Z,100532.84
2019-04-29T03:16:28.681Z,100539.39
2019-04-29T03:19:05.244Z,100539.95
2019-04-29T03:21:38.708Z,100544.95
2019-04-29T03:24:10.498Z,100539.36
2019-04-29T03:26:42.348Z,100542.14
2019-04-29T03:29:23.581Z,100543.86
2019-04-29T03:31:56.651Z,100548.05
2019-04-29T03:34:28.415Z,100548.94
2019-04-29T03:37:00.065Z,100552.53
2019-04-29T03:39:32.035Z,100557.47
2019-04-29T03:42:07.275Z,100557.50
2019-04-29T03:44:37.380Z,100566.98
2019-04-29T03:47:09.775Z,100565.06
2019-04-29T03:49:41.643Z,100568.30
2019-04-29T03:52:13.811Z,100567.98
2019-04-29T03:54:45.884Z,100569.24
2019-04-29T03:57:18.658Z,100567.86
2019-04-29T03:59:50.733Z,100566.94
2019-04-29T04:02:24.438Z,100564.70
2019-04-29T04:05:07.057Z,100559.71
2019-04-29T04:07:40.647Z,100555.78
2019-04-29T04:10:13.248Z,100571.04
2019-04-29T04:12:44.990Z,100568.45
2019-04-29T04:15:17.284Z,100567.75
2019-04-29T04:18:06.041Z,100582.17
2019-04-29T04:20:38.313Z,100581.45
2019-04-29T04:23:10.685Z,100577.45
2019-04-29T04:25:42.762Z,100578.09
2019-04-29T04:28:14.702Z,100573.81
2019-04-29T04:30:46.564Z,100576.05
2019-04-29T04:33:18.790Z,100572.86
2019-04-29T04:35:50.871Z,100575.08
2019-04-29T04:38:22.689Z,100570.00
2019-04-29T04:41:05.594Z,100565.16
2019-04-29T04:43:37.588Z,100564.89
2019-04-29T04:46:10.366Z,100558.38
2019-04-29T04:48:42.317Z,100560.80
2019-04-29T04:51:14.314Z,100567.06
2019-04-29T04:53:46.979Z,100569.78
2019-04-29T04:56:19.133Z,100571.15
2019-04-29T04:58:50.808Z,100571.81
2019-04-29T05:01:22.883Z,100569.79
2019-04-29T05:03:54.844Z,100567.84
2019-04-29T05:06:26.792Z,100567.64
2019-04-29T05:08:59.096Z,100565.50
2019-04-29T05:11:31.081Z,100568.31
2019-04-29T05:14:02.685Z,100566.10
2019-04-29T05:16:34.758Z,100564.28
2019-04-29T05:19:06.742Z,100569.91
2019-04-29T05:21:38.828Z,100571.41
2019-04-29T05:24:10.673Z,100570.75
2019-04-29T05:26:42.825Z,100565.05
2019-04-29T05:29:14.910Z,100571.63
2019-04-29T05:31:46.754Z,100572.47
2019-04-29T05:34:19.558Z,100576.37
2019-04-29T05:36:52.851Z,100567.04
2019-04-29T05:39:26.565Z,100571.27
2019-04-29T05:41:59.009Z,100574.69
2019-04-29T05:44:33.452Z,100572.97
2019-04-29T05:47:17.838Z,100568.32
2019-04-29T05:50:07.197Z,100557.41
2019-04-29T05:52:57.234Z,100557.25
2019-04-29T05:55:29.251Z,100556.12
2019-04-29T05:58:12.794Z,100566.94
2019-04-29T06:00:46.380Z,100566.67
2019-04-29T06:03:18.238Z,100577.57
2019-04-29T06:05:50.048Z,100577.57
2019-04-29T06:08:22.070Z,100572.39
2019-04-29T06:10:53.747Z,100571.63
2019-04-29T06:13:25.915Z,100571.10
2019-04-29T06:15:57.756Z,100571.91
2019-04-29T06:18:29.745Z,100568.28
2019-04-29T06:21:08.934Z,100574.12
2019-04-29T06:23:35.142Z,100566.31
2019-04-29T06:26:07.283Z,100564.92
2019-04-29T06:28:40.085Z,100564.98
2019-04-29T06:31:12.230Z,100563.55
2019-04-29T06:33:44.296Z,100560.83
2019-04-29T06:36:15.947Z,100564.30
2019-04-29T06:38:48.032Z,100557.72
2019-04-29T06:41:21.294Z,100560.61
2019-04-29T06:44:00.637Z,100559.59
2019-04-29T06:46:30.725Z,100564.59
2019-04-29T06:49:10.091Z,100568.58
2019-04-29T06:51:36.242Z,100565.71
2019-04-29T06:54:08.109Z,100566.63
2019-04-29T06:56:39.988Z,100568.95
2019-04-29T06:59:13.881Z,100560.80
2019-04-29T07:01:45.468Z,100565.19
2019-04-29T07:04:17.526Z,100570.58
2019-04-29T07:06:57.069Z,100568.09
2019-04-29T07:09:22.791Z,100566.74
2019-04-29T07:12:01.116Z,100562.27
2019-04-29T07:14:32.799Z,100567.56
2019-04-29T07:17:05.729Z,100565.67
2019-04-29T07:19:35.954Z,100577.62
2019-04-29T07:22:07.936Z,100579.06
2019-04-29T07:24:39.887Z,100578.88
2019-04-29T07:27:11.868Z,100577.78
2019-04-29T07:29:44.858Z,100579.27
2019-04-29T07:32:16.821Z,100586.27
2019-04-29T07:34:48.770Z,100587.56
2019-04-29T07:37:20.649Z,100590.16
2019-04-29T07:39:52.413Z,100594.38
2019-04-29T07:42:30.385Z,100589.78
2019-04-29T07:45:15.885Z,100593.95
2019-04-29T07:47:56.697Z,100598.61
2019-04-29T07:50:26.603Z,100588.63
2019-04-29T07:52:57.226Z,100584.59
2019-04-29T07:55:30.718Z,100586.52
2019-04-29T07:58:02.594Z,100580.48
2019-04-29T08:00:35.635Z,100584.45
2019-04-29T08:03:08.365Z,100582.45
2019-04-29T08:05:40.646Z,100586.63
2019-04-29T08:08:16.731Z,100579.30
2019-04-29T08:10:56.168Z,100585.72
2019-04-29T08:13:21.984Z,100582.47
2019-04-29T08:15:53.405Z,100583.78
2019-04-29T08:18:25.278Z,100586.17
2019-04-29T08:20:57.047Z,100589.55
2019-04-29T08:23:33.057Z,100583.48
2019-04-29T08:26:04.115Z,100582.45
2019-04-29T08:28:35.705Z,100583.81
2019-04-29T08:31:08.253Z,100586.63
2019-04-29T08:33:42.415Z,100590.39
2019-04-29T08:36:13.241Z,100591.38
2019-04-29T08:38:44.902Z,100592.44
2019-04-29T08:41:21.536Z,100590.38
2019-04-29T08:43:52.523Z,100587.45
2019-04-29T08:46:30.096Z,100585.23
2019-04-29T08:49:06.043Z,100587.54
2019-04-29T08:51:35.410Z,100593.83
2019-04-29T08:54:07.384Z,100592.27
2019-04-29T08:56:42.543Z,100590.07
2019-04-29T08:59:12.694Z,100592.55
2019-04-29T09:01:44.733Z,100594.42
2019-04-29T09:04:16.491Z,100590.30
2019-04-29T09:06:48.616Z,100591.77
2019-04-29T09:09:28.983Z,100594.80
2019-04-29T09:11:54.070Z,100600.53
2019-04-29T09:14:25.922Z,100597.81
2019-04-29T09:16:57.883Z,100599.27
2019-04-29T09:19:30.055Z,100602.14
2019-04-29T09:22:03.533Z,100599.56
2019-04-29T09:24:37.257Z,100598.09
2019-04-29T09:27:17.003Z,100603.27
2019-04-29T09:29:54.197Z,100603.25
2019-04-29T09:32:23.629Z,100602.59
2019-04-29T09:34:55.648Z,100609.53
2019-04-29T09:37:28.872Z,100613.95
2019-04-29T09:40:00.926Z,100617.30
2019-04-29T09:42:50.212Z,100621.35
2019-04-29T09:45:39.760Z,100617.28
2019-04-29T09:48:11.791Z,100624.25
2019-04-29T09:50:43.484Z,100623.73
2019-04-29T09:53:15.366Z,100626.64
2019-04-29T09:55:48.549Z,100631.38
2019-04-29T09:58:20.216Z,100629.67
2019-04-29T10:01:13.861Z,100628.45
2019-04-29T10:04:02.837Z,100629.75
2019-04-29T10:06:39.014Z,100620.54
2019-04-29T10:09:11.679Z,100624.13
2019-04-29T10:11:43.861Z,100618.33
2019-04-29T10:14:16.035Z,100618.78
2019-04-29T10:17:05.814Z,100616.17
2019-04-29T10:19:54.571Z,100616.02
2019-04-29T10:22:26.539Z,100620.83
2019-04-29T10:24:58.300Z,100617.16
2019-04-29T10:27:30.575Z,100627.55
2019-04-29T10:30:02.438Z,100623.34
2019-04-29T10:32:37.852Z,100620.61
2019-04-29T10:35:10.704Z,100626.99
2019-04-29T10:37:42.720Z,100628.16
2019-04-29T10:40:28.223Z,100627.16
2019-04-29T10:43:04.382Z,100620.57
2019-04-29T10:45:43.817Z,100621.34
2019-04-29T10:48:17.321Z,100619.78
2019-04-29T10:50:52.125Z,100620.79
2019-04-29T10:53:23.033Z,100627.66
2019-04-29T10:55:55.045Z,100632.86
2019-04-29T10:58:31.185Z,100638.36
2019-04-29T11:01:41.688Z,100638.81
2019-04-29T11:04:14.792Z,100635.19
2019-04-29T11:06:46.853Z,100639.36
2019-04-29T11:09:22.899Z,100632.08
2019-04-29T11:11:54.552Z,100632.79
2019-04-29T11:14:26.639Z,100630.97
2019-04-29T11:16:58.604Z,100638.60
2019-04-29T11:19:30.362Z,100637.27
2019-04-29T11:22:03.311Z,100634.81
2019-04-29T11:24:39.931Z,100631.14
2019-04-29T11:27:13.462Z,100637.91
2019-04-29T11:29:45.498Z,100632.81
2019-04-29T11:32:24.783Z,100639.33
2019-04-29T11:35:06.191Z,100643.11
2019-04-29T11:37:38.184Z,100638.16
2019-04-29T11:40:10.335Z,100643.20
2019-04-29T11:42:42.212Z,100645.30
2019-04-29T11:45:14.164Z,100641.58
2019-04-29T11:47:46.349Z,100634.91
2019-04-29T11:50:27.048Z,100636.61
2019-04-29T11:52:59.290Z,100638.31
2019-04-29T11:55:31.336Z,100633.59
2019-04-29T11:58:14.051Z,100627.63
2019-04-29T12:01:08.581Z,100623.24
2019-04-29T12:03:42.630Z,100615.61
2019-04-29T12:06:16.361Z,100610.58
2019-04-29T12:08:53.239Z,100611.27
2019-04-29T12:11:22.991Z,100610.29
2019-04-29T12:14:08.796Z,100606.80
2019-04-29T12:16:42.284Z,100610.04
2019-04-29T12:19:17.116Z,100614.84
2019-04-29T12:21:49.768Z,100601.12
2019-04-29T12:24:21.440Z,100607.63
2019-04-29T12:26:53.485Z,100601.36
2019-04-29T12:29:25.609Z,100592.55
2019-04-29T12:32:02.020Z,100582.77
2019-04-29T12:34:54.199Z,100579.94
2019-04-29T12:37:40.374Z,100576.11
2019-04-29T12:40:30.561Z,100579.35
2019-04-29T12:43:20.224Z,100575.03
2019-04-29T12:45:54.077Z,100572.98
2019-04-29T12:48:26.257Z,100565.22
2019-04-29T12:50:58.293Z,100568.53
2019-04-29T12:53:30.441Z,100569.13
2019-04-29T12:56:02.527Z,100575.72
2019-04-29T12:58:34.397Z,100577.69
2019-04-29T13:01:20.108Z,100580.92
2019-04-29T13:04:10.738Z,100574.35
2019-04-29T13:06:50.986Z,100578.28
2019-04-29T13:09:34.996Z,100569.48
2019-04-29T13:12:19.130Z,100574.62
2019-04-29T13:15:01.817Z,100575.52
2019-04-29T13:17:26.471Z,100574.15
2019-04-29T13:20:02.553Z,100572.22
2019-04-29T13:22:35.200Z,100578.00
2019-04-29T13:25:08.805Z,100571.34
2019-04-29T13:27:40.599Z,100574.95
2019-04-29T13:30:16.239Z,100570.41
2019-04-29T13:32:47.046Z,100572.56
2019-04-29T13:35:19.224Z,100579.58
2019-04-29T13:37:50.883Z,100567.75
2019-04-29T13:40:22.948Z,100568.71
2019-04-29T13:42:54.795Z,100566.94
2019-04-29T13:45:34.666Z,100570.34
2019-04-29T13:48:10.911Z,100582.81
2019-04-29T13:50:47.373Z,100565.39
2019-04-29T13:53:19.689Z,100564.08
2019-04-29T13:56:09.910Z,100555.39
2019-04-29T13:58:27.046Z,100574.80
2019-04-29T14:01:20.506Z,100564.84
2019-04-29T14:03:46.320Z,100574.67
2019-04-29T14:06:18.663Z,100580.13
2019-04-29T14:08:49.316Z,100576.70
2019-04-29T14:11:21.869Z,100577.34
2019-04-29T14:13:56.084Z,100574.84
2019-04-29T14:16:28.250Z,100581.34
2019-04-29T14:19:00.672Z,100580.39
2019-04-29T14:21:32.575Z,100590.08
2019-04-29T14:24:04.253Z,100587.73
2019-04-29T14:26:37.091Z,100586.56
2019-04-29T14:29:10.128Z,100592.34
2019-04-29T14:31:42.194Z,100599.27
2019-04-29T14:34:34.966Z,100595.55
2019-04-29T14:37:21.425Z,100603.28
2019-04-29T14:39:39.599Z,100605.14
2019-04-29T14:42:30.273Z,100603.34
2019-04-29T14:45:07.288Z,100600.53
2019-04-29T14:47:52.870Z,100598.55
2019-04-29T14:50:24.940Z,100596.40
2019-04-29T14:52:57.109Z,100597.88
2019-04-29T14:55:35.143Z,100596.94
2019-04-29T14:58:06.989Z,100597.14
2019-04-29T15:00:50.949Z,100595.09
2019-04-29T15:03:24.806Z,100584.54
2019-04-29T15:05:56.819Z,100583.66
2019-04-29T15:08:32.070Z,100577.49
2019-04-29T15:11:04.094Z,100579.13
2019-04-29T15:13:35.931Z,100581.10
2019-04-29T15:16:14.011Z,100578.30
2019-04-29T15:18:50.325Z,100586.31
2019-04-29T15:21:42.552Z,100590.05
2019-04-29T15:24:13.634Z,100603.41
2019-04-29T15:26:45.798Z,100589.93
2019-04-29T15:29:20.323Z,100591.16
2019-04-29T15:32:11.218Z,100595.51
2019-04-29T15:34:43.935Z,100595.28
2019-04-29T15:37:16.384Z,100597.16
2019-04-29T15:39:48.367Z,100595.60
2019-04-29T15:42:20.094Z,100596.84
2019-04-29T15:44:57.028Z,100599.11
2019-04-29T15:47:31.298Z,100604.06
2019-04-29T15:50:17.392Z,100594.73
2019-04-29T15:52:35.547Z,100604.95
2019-04-29T15:55:07.408Z,100603.25
2019-04-29T15:57:39.870Z,100614.22
2019-04-29T16:00:21.269Z,100603.90
2019-04-29T16:02:46.185Z,100615.68
2019-04-29T16:05:54.042Z,100614.66
2019-04-29T16:08:30.547Z,100615.15
2019-04-29T16:11:40.177Z,100612.97
2019-04-29T16:14:20.845Z,100608.58
2019-04-29T16:16:52.925Z,100609.57
2019-04-29T16:19:24.591Z,100606.97
2019-04-29T16:21:58.192Z,100607.64
2019-04-29T16:24:38.517Z,100617.25
2019-04-29T16:27:10.240Z,100622.61
2019-04-29T16:29:46.051Z,100623.84
2019-04-29T16:32:30.114Z,100623.43
2019-04-29T16:35:02.383Z,100620.89
2019-04-29T16:37:33.978Z,100636.67
2019-04-29T16:40:08.139Z,100642.54
2019-04-29T16:42:53.639Z,100641.94
2019-04-29T16:45:44.202Z,100652.14
2019-04-29T16:48:17.233Z,100649.16
2019-04-29T16:50:50.525Z,100640.95
2019-04-29T16:53:40.725Z,100647.30
2019-04-29T16:56:35.318Z,100643.28
2019-04-29T16:59:17.979Z,100646.07
2019-04-29T17:02:09.976Z,100646.53
2019-04-29T17:04:46.134Z,100642.80
2019-04-29T17:07:19.326Z,100657.53
2019-04-29T17:09:59.079Z,100653.58
2019-04-29T17:12:36.239Z,100661.82
2019-04-29T17:15:23.829Z,100658.32
2019-04-29T17:17:42.225Z,100654.25
2019-04-29T17:20:14.923Z,100655.38
2019-04-29T17:22:46.680Z,100654.06
2019-04-29T17:25:18.910Z,100664.41
2019-04-29T17:28:11.798Z,100658.76
2019-04-29T17:30:48.522Z,100653.18
2019-04-29T17:33:28.031Z,100661.19
2019-04-29T17:35:58.046Z,100666.14
2019-04-29T17:38:30.399Z,100663.47
2019-04-29T17:41:02.385Z,100659.16
2019-04-29T17:43:42.943Z,100656.79
2019-04-29T17:46:32.225Z,100664.19
2019-04-29T17:49:22.150Z,100658.83
2019-04-29T17:52:01.439Z,100658.06
2019-04-29T17:54:32.793Z,100663.22
2019-04-29T17:57:25.611Z,100658.39
2019-04-29T18:00:00.578Z,100665.78
2019-04-29T18:02:52.454Z,100660.92
2019-04-29T18:05:26.910Z,100659.54
2019-04-29T18:08:08.736Z,100649.80
2019-04-29T18:10:48.360Z,100651.13
2019-04-29T18:13:24.042Z,100648.08
2019-04-29T18:16:01.639Z,100658.63
2019-04-29T18:18:30.525Z,100658.13
2019-04-29T18:21:06.483Z,100665.48
2019-04-29T18:23:47.005Z,100668.20
2019-04-29T18:26:23.108Z,100664.46
2019-04-29T18:28:56.877Z,100670.97
2019-04-29T18:31:31.766Z,100668.61
2019-04-29T18:34:05.580Z,100673.26
2019-04-29T18:36:38.144Z,100680.64
2019-04-29T18:39:11.633Z,100672.84
2019-04-29T18:41:44.809Z,100661.50
2019-04-29T18:44:19.600Z,100670.53
2019-04-29T18:46:54.078Z,100672.70
2019-04-29T18:49:27.663Z,100676.82
2019-04-29T18:52:02.269Z,100676.63
2019-04-29T18:54:33.366Z,100681.75
2019-04-29T18:57:05.959Z,100682.84
2019-04-29T18:59:38.105Z,100686.88
2019-04-29T19:02:09.970Z,100682.31
2019-04-29T19:04:48.519Z,100675.23
2019-04-29T19:07:17.068Z,100673.03
2019-04-29T19:09:48.808Z,100671.06
2019-04-29T19:12:21.116Z,100664.37
2019-04-29T19:14:53.267Z,100663.84
2019-04-29T19:17:25.767Z,100673.08
2019-04-29T19:19:57.691Z,100669.56
2019-04-29T19:22:29.757Z,100673.44
2019-04-29T19:25:01.738Z,100668.61
2019-04-29T19:27:37.107Z,100668.92
2019-04-29T19:30:09.086Z,100660.29
2019-04-29T19:32:41.407Z,100661.33
2019-04-29T19:35:16.801Z,100658.36
2019-04-29T19:37:48.632Z,100650.23
2019-04-29T19:40:20.902Z,100648.67
2019-04-29T19:42:52.855Z,100649.25
2019-04-29T19:45:25.021Z,100641.64
2019-04-29T19:47:56.781Z,100648.67
2019-04-29T19:50:28.965Z,100650.34
2019-04-29T19:53:05.037Z,100654.37
2019-04-29T19:55:43.976Z,100653.05
2019-04-29T19:58:11.804Z,100648.19
2019-04-29T20:00:41.970Z,100654.13
2019-04-29T20:03:22.789Z,100646.02
2019-04-29T20:05:49.835Z,100644.39
2019-04-29T20:08:41.334Z,100637.39
2019-04-29T20:11:01.020Z,100636.28
2019-04-29T20:13:31.729Z,100631.13
2019-04-29T20:16:24.853Z,100635.48
2019-04-29T20:19:01.848Z,100637.92
2019-04-29T20:21:35.950Z,100636.35
2019-04-29T20:24:09.793Z,100640.64
2019-04-29T20:26:43.949Z,100640.91
2019-04-29T20:29:15.936Z,100638.81
2019-04-29T20:31:52.882Z,100643.47
2019-04-29T20:34:24.630Z,100646.51
2019-04-29T20:36:56.136Z,100641.19
2019-04-29T20:39:28.375Z,100636.13
2019-04-29T20:42:01.058Z,100634.83
2019-04-29T20:44:36.597Z,100642.45
2019-04-29T20:47:19.706Z,100641.67
2019-04-29T20:49:41.151Z,100639.77
2019-04-29T20:52:20.328Z,100638.67
2019-04-29T20:54:56.199Z,100639.94
2019-04-29T20:57:22.196Z,100636.39
2019-04-29T20:59:55.092Z,100633.89
2019-04-29T21:02:33.766Z,100638.20
2019-04-29T21:05:01.508Z,100635.18
2019-04-29T21:07:33.652Z,100632.69
2019-04-29T21:10:08.569Z,100644.55
2019-04-29T21:12:59.496Z,100632.66
2019-04-29T21:15:36.301Z,100636.69
2019-04-29T21:18:10.340Z,100637.19
2019-04-29T21:20:41.724Z,100636.39
2019-04-29T21:23:13.600Z,100635.60
2019-04-29T21:25:46.077Z,100637.17
2019-04-29T21:28:18.349Z,100629.05
2019-04-29T21:30:50.112Z,100634.20
2019-04-29T21:33:22.056Z,100633.09
2019-04-29T21:35:58.852Z,100633.09
2019-04-29T21:38:35.323Z,100635.80
2019-04-29T21:41:15.498Z,100633.06
2019-04-29T21:43:53.295Z,100633.31
2019-04-29T21:46:27.821Z,100634.37
2019-04-29T21:48:55.685Z,100639.78
2019-04-29T21:51:27.517Z,100634.31
2019-04-29T21:53:59.380Z,100629.73
2019-04-29T21:56:31.468Z,100636.47
2019-04-29T21:59:09.188Z,100631.06
2019-04-29T22:01:38.061Z,100632.39
2019-04-29T22:04:10.231Z,100623.13
2019-04-29T22:06:42.177Z,100623.95
2019-04-29T22:09:15.930Z,100624.48
2019-04-29T22:11:48.885Z,100618.80
2019-04-29T22:14:20.956Z,100612.30
2019-04-29T22:16:54.362Z,100613.92
2019-04-29T22:19:28.133Z,100614.48
2019-04-29T22:22:01.501Z,100611.77
2019-04-29T22:24:33.207Z,100626.89
2019-04-29T22:27:08.167Z,100625.25
2019-04-29T22:29:39.450Z,100624.45
2019-04-29T22:32:14.675Z,100630.42
2019-04-29T22:34:45.281Z,100620.39
2019-04-29T22:37:17.749Z,100624.72
2019-04-29T22:39:50.846Z,100616.60
2019-04-29T22:42:30.050Z,100617.10
2019-04-29T22:45:01.613Z,100624.93
2019-04-29T22:47:33.476Z,100610.05
2019-04-29T22:50:06.279Z,100615.72
2019-04-29T22:52:38.446Z,100611.16
2019-04-29T22:55:11.627Z,100608.75
2019-04-29T22:57:44.914Z,100614.95
2019-04-29T23:00:18.459Z,100600.86
2019-04-29T23:02:50.193Z,100604.90
2019-04-29T23:05:23.609Z,100597.58
2019-04-29T23:07:57.064Z,100603.55
2019-04-29T23:10:28.837Z,100597.07
2019-04-29T23:13:00.816Z,100585.77
2019-04-29T23:15:33.275Z,100587.33
2019-04-29T23:18:06.184Z,100590.28
2019-04-29T23:20:51.751Z,100585.95
2019-04-29T23:23:33.756Z,100579.45
2019-04-29T23:26:04.166Z,100590.28
2019-04-29T23:28:36.774Z,100592.38
2019-04-29T23:31:08.899Z,100595.34
2019-04-29T23:33:40.891Z,100590.43
2019-04-29T23:36:14.111Z,100587.42
2019-04-29T23:38:46.379Z,100583.60
2019-04-29T23:41:18.148Z,100584.92
2019-04-29T23:43:49.999Z,100584.95
2019-04-29T23:46:22.175Z,100577.36
2019-04-29T23:48:56.491Z,100581.42
2019-04-29T23:51:34.577Z,100578.22
2019-04-29T23:54:05.855Z,100575.74
2019-04-29T23:56:42.834Z,100586.52
2019-04-29T23:59:29.632Z,100571.09
